sensor_id;sensor_type;location;lat;lon;timestamp;P1;durP1;ratioP1;P2;durP2;ratioP2
65033;SDS011;51601;51.356;12.458;2024-03-08T00:02:59;30.48;;;12.45;;
65033;SDS011;51601;51.356;12.458;2024-03-08T00:07:18;22.30;;;8.75;;
65033;SDS011;51601;51.356;12.458;2024-03-08T00:11:38;35.33;;;16.20;;
65033;SDS011;51601;51.356;12.458;2024-03-08T00:15:56;27.45;;;12.73;;
65033;SDS011;51601;51.356;12.458;2024-03-08T00:20:14;24.27;;;9.32;;
65033;SDS011;51601;51.356;12.458;2024-03-08T00:24:37;28.03;;;11.73;;
65033;SDS011;51601;51.356;12.458;2024-03-08T00:28:56;31.20;;;13.95;;
65033;SDS011;51601;51.356;12.458;2024-03-08T00:33:14;31.60;;;12.98;;
65033;SDS011;51601;51.356;12.458;2024-03-08T00:37:32;26.88;;;10.32;;
65033;SDS011;51601;51.356;12.458;2024-03-08T00:41:52;39.37;;;17.37;;
65033;SDS011;51601;51.356;12.458;2024-03-08T00:46:11;37.92;;;15.75;;
65033;SDS011;51601;51.356;12.458;2024-03-08T00:50:32;35.53;;;15.30;;
65033;SDS011;51601;51.356;12.458;2024-03-08T00:54:51;41.33;;;18.27;;
65033;SDS011;51601;51.356;12.458;2024-03-08T00:59:10;31.40;;;13.55;;
65033;SDS011;51601;51.356;12.458;2024-03-08T01:03:30;36.30;;;15.18;;
65033;SDS011;51601;51.356;12.458;2024-03-08T01:07:48;34.87;;;15.70;;
65033;SDS011;51601;51.356;12.458;2024-03-08T01:12:06;37.53;;;16.15;;
65033;SDS011;51601;51.356;12.458;2024-03-08T01:16:28;38.45;;;15.55;;
65033;SDS011;51601;51.356;12.458;2024-03-08T01:20:48;41.50;;;16.25;;
65033;SDS011;51601;51.356;12.458;2024-03-08T01:25:07;34.27;;;15.33;;
65033;SDS011;51601;51.356;12.458;2024-03-08T01:29:24;37.85;;;16.00;;
65033;SDS011;51601;51.356;12.458;2024-03-08T01:33:44;40.35;;;16.48;;
65033;SDS011;51601;51.356;12.458;2024-03-08T01:38:03;40.70;;;16.07;;
65033;SDS011;51601;51.356;12.458;2024-03-08T01:42:22;37.15;;;15.10;;
65033;SDS011;51601;51.356;12.458;2024-03-08T01:46:40;35.63;;;15.65;;
65033;SDS011;51601;51.356;12.458;2024-03-08T01:51:02;35.67;;;15.13;;
65033;SDS011;51601;51.356;12.458;2024-03-08T01:55:22;35.83;;;15.73;;
65033;SDS011;51601;51.356;12.458;2024-03-08T01:59:40;35.83;;;14.80;;
65033;SDS011;51601;51.356;12.458;2024-03-08T02:03:58;34.90;;;14.27;;
65033;SDS011;51601;51.356;12.458;2024-03-08T02:08:17;39.27;;;16.80;;
65033;SDS011;51601;51.356;12.458;2024-03-08T02:12:40;28.10;;;11.23;;
65033;SDS011;51601;51.356;12.458;2024-03-08T02:17:00;32.60;;;14.77;;
65033;SDS011;51601;51.356;12.458;2024-03-08T02:21:21;39.33;;;15.60;;
65033;SDS011;51601;51.356;12.458;2024-03-08T02:25:37;37.20;;;15.32;;
65033;SDS011;51601;51.356;12.458;2024-03-08T02:29:56;35.08;;;13.70;;
65033;SDS011;51601;51.356;12.458;2024-03-08T02:34:17;38.57;;;15.73;;
65033;SDS011;51601;51.356;12.458;2024-03-08T02:38:36;31.63;;;12.80;;
65033;SDS011;51601;51.356;12.458;2024-03-08T02:42:56;44.72;;;16.63;;
65033;SDS011;51601;51.356;12.458;2024-03-08T02:47:14;35.13;;;14.23;;
65033;SDS011;51601;51.356;12.458;2024-03-08T02:51:32;36.03;;;14.23;;
65033;SDS011;51601;51.356;12.458;2024-03-08T02:55:51;25.20;;;10.43;;
65033;SDS011;51601;51.356;12.458;2024-03-08T03:00:11;32.28;;;11.98;;
65033;SDS011;51601;51.356;12.458;2024-03-08T03:04:32;36.97;;;15.87;;
65033;SDS011;51601;51.356;12.458;2024-03-08T03:08:50;30.75;;;12.88;;
65033;SDS011;51601;51.356;12.458;2024-03-08T03:13:10;30.35;;;12.65;;
65033;SDS011;51601;51.356;12.458;2024-03-08T03:17:29;32.37;;;14.37;;
65033;SDS011;51601;51.356;12.458;2024-03-08T03:21:47;29.20;;;12.98;;
65033;SDS011;51601;51.356;12.458;2024-03-08T03:26:06;27.33;;;10.95;;
65033;SDS011;51601;51.356;12.458;2024-03-08T03:30:25;34.85;;;14.93;;
65033;SDS011;51601;51.356;12.458;2024-03-08T03:34:48;33.80;;;13.53;;
65033;SDS011;51601;51.356;12.458;2024-03-08T03:39:09;36.60;;;15.13;;
65033;SDS011;51601;51.356;12.458;2024-03-08T03:43:33;35.10;;;14.40;;
65033;SDS011;51601;51.356;12.458;2024-03-08T03:47:53;28.53;;;11.97;;
65033;SDS011;51601;51.356;12.458;2024-03-08T03:52:12;36.78;;;15.30;;
65033;SDS011;51601;51.356;12.458;2024-03-08T03:56:30;39.60;;;16.48;;
65033;SDS011;51601;51.356;12.458;2024-03-08T04:00:48;37.23;;;13.93;;
65033;SDS011;51601;51.356;12.458;2024-03-08T04:05:08;39.65;;;15.43;;
65033;SDS011;51601;51.356;12.458;2024-03-08T04:09:28;41.00;;;15.68;;
65033;SDS011;51601;51.356;12.458;2024-03-08T04:13:46;32.58;;;13.27;;
65033;SDS011;51601;51.356;12.458;2024-03-08T04:18:10;34.10;;;13.67;;
65033;SDS011;51601;51.356;12.458;2024-03-08T04:22:29;35.92;;;15.07;;
65033;SDS011;51601;51.356;12.458;2024-03-08T04:26:46;36.85;;;14.98;;
65033;SDS011;51601;51.356;12.458;2024-03-08T04:31:04;36.73;;;15.40;;
65033;SDS011;51601;51.356;12.458;2024-03-08T04:35:22;40.67;;;15.80;;
65033;SDS011;51601;51.356;12.458;2024-03-08T04:39:41;29.13;;;11.00;;
65033;SDS011;51601;51.356;12.458;2024-03-08T04:43:58;35.33;;;13.90;;
65033;SDS011;51601;51.356;12.458;2024-03-08T04:48:16;34.30;;;14.57;;
65033;SDS011;51601;51.356;12.458;2024-03-08T04:52:34;24.17;;;10.68;;
65033;SDS011;51601;51.356;12.458;2024-03-08T04:56:54;38.20;;;15.23;;
65033;SDS011;51601;51.356;12.458;2024-03-08T05:01:10;31.60;;;12.57;;
65033;SDS011;51601;51.356;12.458;2024-03-08T05:05:28;40.20;;;14.85;;
65033;SDS011;51601;51.356;12.458;2024-03-08T05:09:46;35.03;;;14.60;;
65033;SDS011;51601;51.356;12.458;2024-03-08T05:14:09;34.80;;;14.17;;
65033;SDS011;51601;51.356;12.458;2024-03-08T05:18:26;41.33;;;16.83;;
65033;SDS011;51601;51.356;12.458;2024-03-08T05:22:44;32.90;;;14.15;;
65033;SDS011;51601;51.356;12.458;2024-03-08T05:27:02;26.53;;;11.77;;
65033;SDS011;51601;51.356;12.458;2024-03-08T05:31:21;41.15;;;16.92;;
65033;SDS011;51601;51.356;12.458;2024-03-08T05:35:38;41.47;;;16.75;;
65033;SDS011;51601;51.356;12.458;2024-03-08T05:39:56;37.60;;;16.13;;
65033;SDS011;51601;51.356;12.458;2024-03-08T05:44:14;40.37;;;15.97;;
65033;SDS011;51601;51.356;12.458;2024-03-08T05:48:33;41.97;;;16.05;;
65033;SDS011;51601;51.356;12.458;2024-03-08T05:52:50;42.60;;;17.80;;
65033;SDS011;51601;51.356;12.458;2024-03-08T05:57:08;42.00;;;16.87;;
65033;SDS011;51601;51.356;12.458;2024-03-08T06:01:26;39.05;;;16.27;;
65033;SDS011;51601;51.356;12.458;2024-03-08T06:05:46;36.90;;;14.95;;
65033;SDS011;51601;51.356;12.458;2024-03-08T06:10:06;38.73;;;14.70;;
65033;SDS011;51601;51.356;12.458;2024-03-08T06:14:27;41.75;;;17.08;;
65033;SDS011;51601;51.356;12.458;2024-03-08T06:18:45;46.00;;;18.63;;
65033;SDS011;51601;51.356;12.458;2024-03-08T06:23:04;39.47;;;16.45;;
65033;SDS011;51601;51.356;12.458;2024-03-08T06:27:21;43.37;;;16.10;;
65033;SDS011;51601;51.356;12.458;2024-03-08T06:31:39;39.95;;;14.93;;
65033;SDS011;51601;51.356;12.458;2024-03-08T06:35:57;39.17;;;16.02;;
65033;SDS011;51601;51.356;12.458;2024-03-08T06:40:17;40.00;;;16.97;;
65033;SDS011;51601;51.356;12.458;2024-03-08T06:44:36;40.20;;;16.50;;
65033;SDS011;51601;51.356;12.458;2024-03-08T06:49:00;36.60;;;15.23;;
65033;SDS011;51601;51.356;12.458;2024-03-08T06:53:18;34.13;;;13.97;;
65033;SDS011;51601;51.356;12.458;2024-03-08T06:57:41;38.13;;;15.85;;
65033;SDS011;51601;51.356;12.458;2024-03-08T07:01:58;33.92;;;16.25;;
65033;SDS011;51601;51.356;12.458;2024-03-08T07:06:16;36.72;;;15.82;;
65033;SDS011;51601;51.356;12.458;2024-03-08T07:10:34;35.40;;;14.77;;
65033;SDS011;51601;51.356;12.458;2024-03-08T07:14:53;34.17;;;14.77;;
65033;SDS011;51601;51.356;12.458;2024-03-08T07:19:13;30.80;;;15.13;;
65033;SDS011;51601;51.356;12.458;2024-03-08T07:23:31;33.33;;;16.23;;
65033;SDS011;51601;51.356;12.458;2024-03-08T07:28:20;30.33;;;15.35;;
65033;SDS011;51601;51.356;12.458;2024-03-08T07:32:39;34.53;;;16.48;;
65033;SDS011;51601;51.356;12.458;2024-03-08T07:36:56;29.00;;;12.60;;
65033;SDS011;51601;51.356;12.458;2024-03-08T07:41:14;32.03;;;16.63;;
65033;SDS011;51601;51.356;12.458;2024-03-08T07:45:32;27.77;;;14.68;;
65033;SDS011;51601;51.356;12.458;2024-03-08T07:49:51;23.83;;;12.15;;
65033;SDS011;51601;51.356;12.458;2024-03-08T07:54:11;28.67;;;15.20;;
65033;SDS011;51601;51.356;12.458;2024-03-08T07:58:29;28.52;;;13.32;;
65033;SDS011;51601;51.356;12.458;2024-03-08T08:02:50;26.45;;;14.93;;
65033;SDS011;51601;51.356;12.458;2024-03-08T08:07:10;30.97;;;15.50;;
65033;SDS011;51601;51.356;12.458;2024-03-08T08:11:29;30.50;;;15.23;;
65033;SDS011;51601;51.356;12.458;2024-03-08T08:15:47;28.02;;;15.77;;
65033;SDS011;51601;51.356;12.458;2024-03-08T08:20:06;32.77;;;16.40;;
65033;SDS011;51601;51.356;12.458;2024-03-08T08:24:25;31.27;;;16.77;;
65033;SDS011;51601;51.356;12.458;2024-03-08T08:28:42;28.70;;;16.13;;
65033;SDS011;51601;51.356;12.458;2024-03-08T08:33:03;28.75;;;16.40;;
65033;SDS011;51601;51.356;12.458;2024-03-08T08:37:23;29.07;;;16.60;;
65033;SDS011;51601;51.356;12.458;2024-03-08T08:41:43;28.08;;;15.63;;
65033;SDS011;51601;51.356;12.458;2024-03-08T08:46:00;29.73;;;16.30;;
65033;SDS011;51601;51.356;12.458;2024-03-08T08:50:18;29.83;;;16.70;;
65033;SDS011;51601;51.356;12.458;2024-03-08T08:54:42;32.47;;;16.58;;
65033;SDS011;51601;51.356;12.458;2024-03-08T08:59:08;30.08;;;16.63;;
65033;SDS011;51601;51.356;12.458;2024-03-08T09:03:24;26.97;;;14.30;;
65033;SDS011;51601;51.356;12.458;2024-03-08T09:07:43;29.73;;;16.30;;
65033;SDS011;51601;51.356;12.458;2024-03-08T09:12:01;28.20;;;16.42;;
65033;SDS011;51601;51.356;12.458;2024-03-08T09:16:20;27.65;;;15.05;;
65033;SDS011;51601;51.356;12.458;2024-03-08T09:20:40;30.43;;;16.40;;
65033;SDS011;51601;51.356;12.458;2024-03-08T09:24:58;30.70;;;17.13;;
65033;SDS011;51601;51.356;12.458;2024-03-08T09:29:16;27.75;;;15.15;;
65033;SDS011;51601;51.356;12.458;2024-03-08T09:33:38;31.60;;;16.40;;
65033;SDS011;51601;51.356;12.458;2024-03-08T09:37:58;30.42;;;17.70;;
65033;SDS011;51601;51.356;12.458;2024-03-08T09:42:16;29.73;;;16.63;;
65033;SDS011;51601;51.356;12.458;2024-03-08T09:46:34;31.53;;;17.73;;
65033;SDS011;51601;51.356;12.458;2024-03-08T09:50:54;26.88;;;13.85;;
65033;SDS011;51601;51.356;12.458;2024-03-08T09:55:14;30.08;;;17.05;;
65033;SDS011;51601;51.356;12.458;2024-03-08T09:59:38;30.70;;;17.98;;
65033;SDS011;51601;51.356;12.458;2024-03-08T10:04:02;30.07;;;17.67;;
65033;SDS011;51601;51.356;12.458;2024-03-08T10:08:21;26.08;;;15.35;;
65033;SDS011;51601;51.356;12.458;2024-03-08T10:12:41;27.60;;;14.70;;
65033;SDS011;51601;51.356;12.458;2024-03-08T10:16:59;31.07;;;17.90;;
65033;SDS011;51601;51.356;12.458;2024-03-08T10:21:17;29.55;;;16.48;;
65033;SDS011;51601;51.356;12.458;2024-03-08T10:25:36;27.48;;;15.63;;
65033;SDS011;51601;51.356;12.458;2024-03-08T10:29:56;29.43;;;16.70;;
65033;SDS011;51601;51.356;12.458;2024-03-08T10:34:17;26.23;;;15.20;;
65033;SDS011;51601;51.356;12.458;2024-03-08T10:38:36;26.52;;;15.50;;
65033;SDS011;51601;51.356;12.458;2024-03-08T10:42:55;27.25;;;15.85;;
65033;SDS011;51601;51.356;12.458;2024-03-08T10:47:17;29.57;;;15.90;;
65033;SDS011;51601;51.356;12.458;2024-03-08T10:51:39;30.77;;;16.67;;
65033;SDS011;51601;51.356;12.458;2024-03-08T10:55:57;24.58;;;14.05;;
65033;SDS011;51601;51.356;12.458;2024-03-08T11:00:17;28.40;;;16.43;;
65033;SDS011;51601;51.356;12.458;2024-03-08T11:04:45;26.85;;;15.70;;
65033;SDS011;51601;51.356;12.458;2024-03-08T11:09:08;26.05;;;15.02;;
65033;SDS011;51601;51.356;12.458;2024-03-08T11:13:34;30.03;;;16.37;;
65033;SDS011;51601;51.356;12.458;2024-03-08T11:17:53;28.40;;;14.88;;
65033;SDS011;51601;51.356;12.458;2024-03-08T11:22:23;26.20;;;14.55;;
65033;SDS011;51601;51.356;12.458;2024-03-08T11:26:46;26.40;;;14.75;;
65033;SDS011;51601;51.356;12.458;2024-03-08T11:31:23;23.63;;;12.47;;
65033;SDS011;51601;51.356;12.458;2024-03-08T11:35:45;28.20;;;15.52;;
65033;SDS011;51601;51.356;12.458;2024-03-08T11:40:11;26.50;;;14.30;;
65033;SDS011;51601;51.356;12.458;2024-03-08T11:44:32;24.53;;;13.07;;
65033;SDS011;51601;51.356;12.458;2024-03-08T11:48:50;27.40;;;13.65;;
65033;SDS011;51601;51.356;12.458;2024-03-08T11:53:13;26.52;;;13.27;;
65033;SDS011;51601;51.356;12.458;2024-03-08T11:57:30;25.63;;;12.50;;
65033;SDS011;51601;51.356;12.458;2024-03-08T12:02:01;26.15;;;14.43;;
65033;SDS011;51601;51.356;12.458;2024-03-08T12:06:21;27.85;;;15.32;;
65033;SDS011;51601;51.356;12.458;2024-03-08T12:10:41;25.25;;;12.75;;
65033;SDS011;51601;51.356;12.458;2024-03-08T12:15:00;24.47;;;13.53;;
65033;SDS011;51601;51.356;12.458;2024-03-08T12:19:21;24.48;;;13.70;;
65033;SDS011;51601;51.356;12.458;2024-03-08T12:23:42;29.17;;;15.35;;
65033;SDS011;51601;51.356;12.458;2024-03-08T12:28:08;25.73;;;13.67;;
65033;SDS011;51601;51.356;12.458;2024-03-08T12:32:37;28.92;;;14.98;;
65033;SDS011;51601;51.356;12.458;2024-03-08T12:37:01;30.60;;;15.13;;
65033;SDS011;51601;51.356;12.458;2024-03-08T12:41:22;30.57;;;14.70;;
65033;SDS011;51601;51.356;12.458;2024-03-08T12:45:45;28.77;;;14.15;;
65033;SDS011;51601;51.356;12.458;2024-03-08T12:50:05;31.85;;;16.85;;
65033;SDS011;51601;51.356;12.458;2024-03-08T12:54:26;30.55;;;15.55;;
65033;SDS011;51601;51.356;12.458;2024-03-08T12:58:44;29.77;;;14.20;;
65033;SDS011;51601;51.356;12.458;2024-03-08T13:03:03;25.70;;;12.88;;
65033;SDS011;51601;51.356;12.458;2024-03-08T13:07:23;29.85;;;14.30;;
65033;SDS011;51601;51.356;12.458;2024-03-08T13:11:41;30.20;;;15.30;;
65033;SDS011;51601;51.356;12.458;2024-03-08T13:15:59;32.55;;;16.23;;
65033;SDS011;51601;51.356;12.458;2024-03-08T13:20:18;27.70;;;15.35;;
65033;SDS011;51601;51.356;12.458;2024-03-08T13:24:47;32.37;;;15.83;;
65033;SDS011;51601;51.356;12.458;2024-03-08T13:29:08;30.20;;;14.85;;
65033;SDS011;51601;51.356;12.458;2024-03-08T13:33:27;29.73;;;14.57;;
65033;SDS011;51601;51.356;12.458;2024-03-08T13:37:46;30.73;;;15.70;;
65033;SDS011;51601;51.356;12.458;2024-03-08T13:42:06;31.87;;;15.87;;
65033;SDS011;51601;51.356;12.458;2024-03-08T13:46:27;28.75;;;14.75;;
65033;SDS011;51601;51.356;12.458;2024-03-08T13:50:45;30.27;;;15.77;;
65033;SDS011;51601;51.356;12.458;2024-03-08T13:55:05;30.40;;;16.53;;
65033;SDS011;51601;51.356;12.458;2024-03-08T13:59:24;27.90;;;14.18;;
65033;SDS011;51601;51.356;12.458;2024-03-08T14:03:45;31.63;;;15.15;;
65033;SDS011;51601;51.356;12.458;2024-03-08T14:08:04;29.10;;;15.23;;
65033;SDS011;51601;51.356;12.458;2024-03-08T14:12:26;26.35;;;13.70;;
65033;SDS011;51601;51.356;12.458;2024-03-08T14:16:48;29.33;;;13.48;;
65033;SDS011;51601;51.356;12.458;2024-03-08T14:21:10;24.88;;;12.35;;
65033;SDS011;51601;51.356;12.458;2024-03-08T14:25:28;28.37;;;15.13;;
65033;SDS011;51601;51.356;12.458;2024-03-08T14:29:51;29.15;;;14.07;;
65033;SDS011;51601;51.356;12.458;2024-03-08T14:34:10;22.20;;;11.32;;
65033;SDS011;51601;51.356;12.458;2024-03-08T14:38:34;26.73;;;14.37;;
65033;SDS011;51601;51.356;12.458;2024-03-08T14:42:55;27.42;;;13.68;;
65033;SDS011;51601;51.356;12.458;2024-03-08T14:47:15;23.95;;;13.15;;
65033;SDS011;51601;51.356;12.458;2024-03-08T14:51:35;28.77;;;12.60;;
65033;SDS011;51601;51.356;12.458;2024-03-08T14:55:56;34.67;;;16.20;;
65033;SDS011;51601;51.356;12.458;2024-03-08T15:00:18;32.30;;;15.63;;
65033;SDS011;51601;51.356;12.458;2024-03-08T15:04:47;29.77;;;14.57;;
65033;SDS011;51601;51.356;12.458;2024-03-08T15:09:15;27.13;;;14.50;;
65033;SDS011;51601;51.356;12.458;2024-03-08T15:13:36;32.30;;;15.70;;
65033;SDS011;51601;51.356;12.458;2024-03-08T15:17:57;25.08;;;13.13;;
65033;SDS011;51601;51.356;12.458;2024-03-08T15:22:25;25.23;;;12.67;;
65033;SDS011;51601;51.356;12.458;2024-03-08T15:26:46;27.80;;;14.13;;
65033;SDS011;51601;51.356;12.458;2024-03-08T15:31:09;25.35;;;13.75;;
65033;SDS011;51601;51.356;12.458;2024-03-08T15:35:27;29.90;;;13.57;;
65033;SDS011;51601;51.356;12.458;2024-03-08T15:39:50;23.13;;;12.15;;
65033;SDS011;51601;51.356;12.458;2024-03-08T15:44:16;30.83;;;13.95;;
65033;SDS011;51601;51.356;12.458;2024-03-08T15:48:34;26.50;;;12.57;;
65033;SDS011;51601;51.356;12.458;2024-03-08T15:52:55;29.17;;;14.30;;
65033;SDS011;51601;51.356;12.458;2024-03-08T15:57:18;27.30;;;12.80;;
65033;SDS011;51601;51.356;12.458;2024-03-08T16:01:50;28.67;;;14.70;;
65033;SDS011;51601;51.356;12.458;2024-03-08T16:06:09;26.33;;;13.70;;
65033;SDS011;51601;51.356;12.458;2024-03-08T16:10:29;30.17;;;14.45;;
65033;SDS011;51601;51.356;12.458;2024-03-08T16:14:48;27.75;;;14.45;;
65033;SDS011;51601;51.356;12.458;2024-03-08T16:19:12;22.90;;;11.50;;
65033;SDS011;51601;51.356;12.458;2024-03-08T16:23:29;27.63;;;13.20;;
65033;SDS011;51601;51.356;12.458;2024-03-08T16:27:50;29.45;;;12.95;;
65033;SDS011;51601;51.356;12.458;2024-03-08T16:32:09;26.65;;;12.90;;
65033;SDS011;51601;51.356;12.458;2024-03-08T16:36:27;27.10;;;14.20;;
65033;SDS011;51601;51.356;12.458;2024-03-08T16:40:54;28.38;;;13.88;;
65033;SDS011;51601;51.356;12.458;2024-03-08T16:45:15;26.77;;;13.68;;
65033;SDS011;51601;51.356;12.458;2024-03-08T16:49:37;27.53;;;13.47;;
65033;SDS011;51601;51.356;12.458;2024-03-08T16:54:00;26.42;;;12.48;;
65033;SDS011;51601;51.356;12.458;2024-03-08T16:58:18;28.58;;;12.98;;
65033;SDS011;51601;51.356;12.458;2024-03-08T17:02:39;30.33;;;14.57;;
65033;SDS011;51601;51.356;12.458;2024-03-08T17:06:59;24.15;;;10.50;;
65033;SDS011;51601;51.356;12.458;2024-03-08T17:11:15;26.50;;;13.35;;
65033;SDS011;51601;51.356;12.458;2024-03-08T17:15:38;22.83;;;10.38;;
65033;SDS011;51601;51.356;12.458;2024-03-08T17:20:02;24.93;;;12.03;;
65033;SDS011;51601;51.356;12.458;2024-03-08T17:24:31;24.67;;;12.30;;
65033;SDS011;51601;51.356;12.458;2024-03-08T17:28:50;27.10;;;11.95;;
65033;SDS011;51601;51.356;12.458;2024-03-08T17:33:08;24.63;;;11.37;;
65033;SDS011;51601;51.356;12.458;2024-03-08T17:37:33;29.05;;;12.45;;
65033;SDS011;51601;51.356;12.458;2024-03-08T17:41:52;23.35;;;10.18;;
65033;SDS011;51601;51.356;12.458;2024-03-08T17:46:15;27.03;;;12.97;;
65033;SDS011;51601;51.356;12.458;2024-03-08T17:50:35;22.30;;;9.95;;
65033;SDS011;51601;51.356;12.458;2024-03-08T17:54:54;22.38;;;10.35;;
65033;SDS011;51601;51.356;12.458;2024-03-08T17:59:15;25.63;;;12.65;;
65033;SDS011;51601;51.356;12.458;2024-03-08T18:03:33;27.60;;;12.80;;
65033;SDS011;51601;51.356;12.458;2024-03-08T18:07:54;32.80;;;14.10;;
65033;SDS011;51601;51.356;12.458;2024-03-08T18:12:12;28.30;;;12.98;;
65033;SDS011;51601;51.356;12.458;2024-03-08T18:16:33;28.63;;;13.63;;
65033;SDS011;51601;51.356;12.458;2024-03-08T18:20:52;29.83;;;14.07;;
65033;SDS011;51601;51.356;12.458;2024-03-08T18:25:10;28.73;;;13.80;;
65033;SDS011;51601;51.356;12.458;2024-03-08T18:29:34;30.70;;;14.97;;
65033;SDS011;51601;51.356;12.458;2024-03-08T18:33:53;34.25;;;15.73;;
65033;SDS011;51601;51.356;12.458;2024-03-08T18:38:10;33.97;;;15.93;;
65033;SDS011;51601;51.356;12.458;2024-03-08T18:42:28;35.13;;;15.77;;
65033;SDS011;51601;51.356;12.458;2024-03-08T18:46:46;35.30;;;14.90;;
65033;SDS011;51601;51.356;12.458;2024-03-08T18:51:06;23.55;;;11.15;;
65033;SDS011;51601;51.356;12.458;2024-03-08T18:55:26;33.78;;;14.85;;
65033;SDS011;51601;51.356;12.458;2024-03-08T18:59:50;37.13;;;16.37;;
65033;SDS011;51601;51.356;12.458;2024-03-08T19:04:08;37.47;;;18.15;;
65033;SDS011;51601;51.356;12.458;2024-03-08T19:08:27;40.00;;;18.33;;
65033;SDS011;51601;51.356;12.458;2024-03-08T19:12:50;41.17;;;19.23;;
65033;SDS011;51601;51.356;12.458;2024-03-08T19:17:08;42.58;;;18.65;;
65033;SDS011;51601;51.356;12.458;2024-03-08T19:21:32;41.53;;;19.08;;
65033;SDS011;51601;51.356;12.458;2024-03-08T19:25:52;39.72;;;17.77;;
65033;SDS011;51601;51.356;12.458;2024-03-08T19:30:12;46.57;;;20.17;;
65033;SDS011;51601;51.356;12.458;2024-03-08T19:34:32;51.17;;;21.08;;
65033;SDS011;51601;51.356;12.458;2024-03-08T19:38:51;43.00;;;19.52;;
65033;SDS011;51601;51.356;12.458;2024-03-08T19:43:13;47.23;;;21.47;;
65033;SDS011;51601;51.356;12.458;2024-03-08T20:11:37;48.00;;;21.17;;
65033;SDS011;51601;51.356;12.458;2024-03-08T20:15:58;45.53;;;20.30;;
65033;SDS011;51601;51.356;12.458;2024-03-08T20:20:16;37.08;;;18.00;;
65033;SDS011;51601;51.356;12.458;2024-03-08T20:24:37;31.20;;;14.85;;
65033;SDS011;51601;51.356;12.458;2024-03-08T20:28:57;51.10;;;22.13;;
65033;SDS011;51601;51.356;12.458;2024-03-08T20:33:16;43.13;;;19.42;;
65033;SDS011;51601;51.356;12.458;2024-03-08T20:37:35;46.03;;;20.40;;
65033;SDS011;51601;51.356;12.458;2024-03-08T20:41:59;48.93;;;22.77;;
65033;SDS011;51601;51.356;12.458;2024-03-08T20:46:24;50.58;;;22.13;;
65033;SDS011;51601;51.356;12.458;2024-03-08T20:50:47;41.88;;;19.52;;
65033;SDS011;51601;51.356;12.458;2024-03-08T20:55:11;50.45;;;22.30;;
65033;SDS011;51601;51.356;12.458;2024-03-08T20:59:35;56.53;;;23.53;;
65033;SDS011;51601;51.356;12.458;2024-03-08T21:04:01;54.05;;;23.35;;
65033;SDS011;51601;51.356;12.458;2024-03-08T21:08:26;45.30;;;20.38;;
65033;SDS011;51601;51.356;12.458;2024-03-08T21:13:07;53.13;;;23.43;;
65033;SDS011;51601;51.356;12.458;2024-03-08T21:17:31;50.85;;;22.25;;
65033;SDS011;51601;51.356;12.458;2024-03-08T21:21:55;47.58;;;20.60;;
65033;SDS011;51601;51.356;12.458;2024-03-08T21:26:19;52.40;;;23.43;;
65033;SDS011;51601;51.356;12.458;2024-03-08T21:30:48;53.53;;;22.65;;
65033;SDS011;51601;51.356;12.458;2024-03-08T21:35:10;51.88;;;22.92;;
65033;SDS011;51601;51.356;12.458;2024-03-08T21:39:30;51.33;;;22.87;;
65033;SDS011;51601;51.356;12.458;2024-03-08T21:43:52;48.90;;;21.63;;
65033;SDS011;51601;51.356;12.458;2024-03-08T21:48:20;38.40;;;16.55;;
65033;SDS011;51601;51.356;12.458;2024-03-08T21:53:03;51.70;;;23.00;;
65033;SDS011;51601;51.356;12.458;2024-03-08T21:57:41;33.27;;;15.27;;
65033;SDS011;51601;51.356;12.458;2024-03-08T22:02:09;52.15;;;21.50;;
65033;SDS011;51601;51.356;12.458;2024-03-08T22:06:28;41.15;;;18.98;;
65033;SDS011;51601;51.356;12.458;2024-03-08T22:11:04;49.17;;;21.20;;
65033;SDS011;51601;51.356;12.458;2024-03-08T22:15:45;42.65;;;17.48;;
65033;SDS011;51601;51.356;12.458;2024-03-08T22:20:08;50.78;;;21.63;;
65033;SDS011;51601;51.356;12.458;2024-03-08T22:24:35;48.63;;;19.80;;
65033;SDS011;51601;51.356;12.458;2024-03-08T22:28:59;35.53;;;15.18;;
65033;SDS011;51601;51.356;12.458;2024-03-08T22:33:25;46.78;;;20.98;;
65033;SDS011;51601;51.356;12.458;2024-03-08T22:37:47;49.80;;;21.10;;
65033;SDS011;51601;51.356;12.458;2024-03-08T22:42:09;52.90;;;22.40;;
65033;SDS011;51601;51.356;12.458;2024-03-08T22:46:31;51.28;;;21.98;;
65033;SDS011;51601;51.356;12.458;2024-03-08T22:50:49;49.00;;;21.10;;
65033;SDS011;51601;51.356;12.458;2024-03-08T22:55:12;51.97;;;21.33;;
65033;SDS011;51601;51.356;12.458;2024-03-08T22:59:36;51.13;;;21.00;;
65033;SDS011;51601;51.356;12.458;2024-03-08T23:03:57;56.13;;;23.63;;
65033;SDS011;51601;51.356;12.458;2024-03-08T23:08:17;58.70;;;23.87;;
65033;SDS011;51601;51.356;12.458;2024-03-08T23:12:36;54.50;;;22.80;;
65033;SDS011;51601;51.356;12.458;2024-03-08T23:16:55;59.33;;;25.05;;
65033;SDS011;51601;51.356;12.458;2024-03-08T23:21:16;56.20;;;23.25;;
65033;SDS011;51601;51.356;12.458;2024-03-08T23:25:35;59.07;;;24.13;;
65033;SDS011;51601;51.356;12.458;2024-03-08T23:29:55;55.88;;;23.65;;
65033;SDS011;51601;51.356;12.458;2024-03-08T23:34:13;57.08;;;23.55;;
65033;SDS011;51601;51.356;12.458;2024-03-08T23:38:32;58.60;;;22.80;;
65033;SDS011;51601;51.356;12.458;2024-03-08T23:42:50;55.33;;;23.75;;
65033;SDS011;51601;51.356;12.458;2024-03-08T23:47:10;54.10;;;22.45;;
65033;SDS011;51601;51.356;12.458;2024-03-08T23:51:31;53.87;;;23.27;;
65033;SDS011;51601;51.356;12.458;2024-03-08T23:55:49;51.47;;;20.65;;
